Time,TemperatureF,DewpointF,PressureIn,WindDirection,WindDirectionDegrees,WindSpeedMPH,WindSpeedGustMPH,Humidity,HourlyPrecipIn,Conditions,Clouds,dailyrainin,SoftwareType,DateUTC
2013-05-07 00:13:00,57.7,55.0,29.95,WSW,257,0.0,1.0,92,0.00,,,0.00,weatherlink.com 1.10,2013-05-07 07:13:00,
2013-05-07 00:28:00,57.6,56.0,29.95,WSW,257,1.0,1.0,93,0.00,,,0.00,weatherlink.com 1.10,2013-05-07 07:28:00,
2013-05-07 00:43:00,57.5,56.0,29.95,WSW,250,0.0,1.0,94,0.00,,,0.00,weatherlink.com 1.10,2013-05-07 07:43:00,
2013-05-07 00:58:00,57.5,56.0,29.95,SW,228,0.0,2.0,94,0.00,,,0.00,weatherlink.com 1.10,2013-05-07 07:58:00,
2013-05-07 01:13:00,57.5,56.0,29.95,South,171,1.0,2.0,95,0.00,,,0.00,weatherlink.com 1.10,2013-05-07 08:13:00,
2013-05-07 01:28:00,57.7,56.0,29.95,SSE,153,3.0,3.0,94,0.00,,,0.00,weatherlink.com 1.10,2013-05-07 08:28:00,
2013-05-07 01:43:00,57.9,56.0,29.95,SE,134,0.0,2.0,92,0.00,,,0.00,weatherlink.com 1.10,2013-05-07 08:43:00,
2013-05-07 01:59:00,57.7,56.0,29.95,SE,134,0.0,2.0,93,0.00,,,0.00,weatherlink.com 1.10,2013-05-07 08:59:00,
2013-05-07 02:14:00,57.5,56.0,29.95,SE,134,0.0,0.0,93,0.00,,,0.00,weatherlink.com 1.10,2013-05-07 09:14:00,
2013-05-07 02:29:00,57.3,55.0,29.95,SE,134,0.0,2.0,93,0.00,,,0.00,weatherlink.com 1.10,2013-05-07 09:29:00,
2013-05-07 02:44:00,57.3,55.0,29.95,South,179,1.0,2.0,92,0.00,,,0.00,weatherlink.com 1.10,2013-05-07 09:44:00,
2013-05-07 02:59:00,57.2,55.0,29.95,South,179,0.0,2.0,92,0.00,,,0.00,weatherlink.com 1.10,2013-05-07 09:59:00,
2013-05-07 03:14:00,57.1,55.0,29.95,South,179,0.0,1.0,92,0.00,,,0.00,weatherlink.com 1.10,2013-05-07 10:14:00,
2013-05-07 03:29:00,56.9,55.0,29.95,South,179,0.0,2.0,92,0.00,,,0.00,weatherlink.com 1.10,2013-05-07 10:29:00,
2013-05-07 03:44:00,56.8,55.0,29.95,South,179,0.0,2.0,92,0.00,,,0.00,weatherlink.com 1.10,2013-05-07 10:44:00,
2013-05-07 03:59:00,56.7,55.0,29.95,South,180,0.0,2.0,92,0.00,,,0.00,weatherlink.com 1.10,2013-05-07 10:59:00,
2013-05-07 04:14:00,56.7,55.0,29.95,SW,217,1.0,1.0,92,0.00,,,0.00,weatherlink.com 1.10,2013-05-07 11:14:00,
2013-05-07 04:29:00,56.6,55.0,29.95,SW,217,0.0,2.0,93,0.00,,,0.00,weatherlink.com 1.10,2013-05-07 11:29:00,
2013-05-07 04:44:00,56.4,55.0,29.95,SW,217,0.0,1.0,93,0.00,,,0.00,weatherlink.com 1.10,2013-05-07 11:44:00,
2013-05-07 04:59:00,56.1,54.0,29.95,SW,217,0.0,2.0,93,0.00,,,0.00,weatherlink.com 1.10,2013-05-07 11:59:00,
2013-05-07 05:14:00,56.0,54.0,29.96,SW,217,0.0,0.0,94,0.00,,,0.00,weatherlink.com 1.10,2013-05-07 12:14:00,
2013-05-07 05:29:00,56.1,54.0,29.96,SW,217,1.0,2.0,94,0.00,,,0.00,weatherlink.com 1.10,2013-05-07 12:29:00,
2013-05-07 05:44:00,56.2,54.0,29.96,SSW,209,1.0,3.0,93,0.00,,,0.00,weatherlink.com 1.10,2013-05-07 12:44:00,
2013-05-07 05:59:00,56.3,54.0,29.96,SSW,209,1.0,3.0,92,0.00,,,0.00,weatherlink.com 1.10,2013-05-07 12:59:00,
2013-05-07 06:14:00,56.4,54.0,29.96,SSW,198,1.0,4.0,91,0.00,,,0.00,weatherlink.com 1.10,2013-05-07 13:14:00,
2013-05-07 06:29:00,56.5,54.0,29.97,SSW,206,1.0,4.0,91,0.00,,,0.00,weatherlink.com 1.10,2013-05-07 13:29:00,
2013-05-07 06:44:00,56.5,54.0,29.97,SSW,198,2.0,4.0,91,0.00,,,0.00,weatherlink.com 1.10,2013-05-07 13:44:00,
2013-05-07 06:59:00,56.8,54.0,29.98,SSW,202,1.0,5.0,90,0.00,,,0.00,weatherlink.com 1.10,2013-05-07 13:59:00,
2013-05-07 07:14:00,56.9,54.0,29.98,SSW,213,2.0,5.0,90,0.00,,,0.00,weatherlink.com 1.10,2013-05-07 14:14:00,
2013-05-07 07:29:00,57.3,55.0,29.98,SSW,209,4.0,5.0,91,0.00,,,0.00,weatherlink.com 1.10,2013-05-07 14:29:00,
2013-05-07 07:44:00,58.3,55.0,29.98,SW,234,1.0,6.0,89,0.00,,,0.00,weatherlink.com 1.10,2013-05-07 14:44:00,
2013-05-07 07:59:00,59.0,56.0,29.98,SSW,201,1.0,6.0,88,0.00,,,0.00,weatherlink.com 1.10,2013-05-07 14:59:00,
2013-05-07 08:14:00,59.8,56.0,29.99,SW,225,1.0,7.0,88,0.00,,,0.00,weatherlink.com 1.10,2013-05-07 15:14:00,
2013-05-07 08:29:00,60.4,57.0,29.99,SW,224,4.0,5.0,87,0.00,,,0.00,weatherlink.com 1.10,2013-05-07 15:29:00,
2013-05-07 08:44:00,61.1,56.0,29.99,SSW,213,3.0,6.0,84,0.00,,,0.00,weatherlink.com 1.10,2013-05-07 15:44:00,
2013-05-07 08:59:00,61.7,57.0,30.00,WSW,247,4.0,7.0,84,0.00,,,0.00,weatherlink.com 1.10,2013-05-07 15:59:00,
2013-05-07 09:14:00,62.3,56.0,30.00,SW,232,1.0,5.0,81,0.00,,,0.00,weatherlink.com 1.10,2013-05-07 16:14:00,
2013-05-07 09:29:00,63.0,57.0,30.00,WSW,244,2.0,4.0,80,0.00,,,0.00,weatherlink.com 1.10,2013-05-07 16:29:00,
2013-05-07 09:44:00,63.8,56.0,30.00,WSW,250,2.0,6.0,75,0.00,,,0.00,weatherlink.com 1.10,2013-05-07 16:44:00,
2013-05-07 10:00:00,64.1,56.0,30.00,WSW,246,3.0,6.0,74,0.00,,,0.00,weatherlink.com 1.10,2013-05-07 17:00:00,
2013-05-07 10:15:00,64.5,57.0,30.00,SSW,201,7.0,8.0,76,0.00,,,0.00,weatherlink.com 1.10,2013-05-07 17:15:00,
2013-05-07 10:30:00,64.9,57.0,30.01,SSW,199,5.0,9.0,76,0.00,,,0.00,weatherlink.com 1.10,2013-05-07 17:30:00,
2013-05-07 10:45:00,65.9,57.0,30.01,SSW,205,5.0,8.0,73,0.00,,,0.00,weatherlink.com 1.10,2013-05-07 17:45:00,
2013-05-07 11:00:00,66.8,57.0,30.01,SW,227,3.0,8.0,70,0.00,,,0.00,weatherlink.com 1.10,2013-05-07 18:00:00,
2013-05-07 11:15:00,67.2,56.0,30.00,SSW,209,6.0,10.0,67,0.00,,,0.00,weatherlink.com 1.10,2013-05-07 18:15:00,
2013-05-07 11:30:00,67.2,57.0,30.00,SW,217,5.0,9.0,70,0.00,,,0.00,weatherlink.com 1.10,2013-05-07 18:30:00,
2013-05-07 11:45:00,67.8,55.0,30.00,West,259,4.0,9.0,64,0.00,,,0.00,weatherlink.com 1.10,2013-05-07 18:45:00,
2013-05-07 12:00:00,69.2,57.0,30.00,SW,229,7.0,10.0,66,0.00,,,0.00,weatherlink.com 1.10,2013-05-07 19:00:00,
2013-05-07 12:15:00,69.4,57.0,30.00,SW,236,3.0,8.0,64,0.00,,,0.00,weatherlink.com 1.10,2013-05-07 19:15:00,
2013-05-07 12:30:00,69.6,56.0,29.99,West,259,3.0,7.0,62,0.00,,,0.00,weatherlink.com 1.10,2013-05-07 19:30:00,
2013-05-07 12:45:00,70.1,54.0,29.99,WNW,284,5.0,11.0,57,0.00,,,0.00,weatherlink.com 1.10,2013-05-07 19:45:00,
2013-05-07 13:00:00,70.7,55.0,29.99,South,188,4.0,8.0,57,0.00,,,0.00,weatherlink.com 1.10,2013-05-07 20:00:00,
2013-05-07 13:15:00,71.1,54.0,29.99,West,280,6.0,8.0,55,0.00,,,0.00,weatherlink.com 1.10,2013-05-07 20:15:00,
2013-05-07 13:30:00,71.6,54.0,29.98,SW,223,8.0,10.0,55,0.00,,,0.00,weatherlink.com 1.10,2013-05-07 20:30:00,
2013-05-07 13:45:00,72.0,53.0,29.98,SSW,194,2.0,7.0,52,0.00,,,0.00,weatherlink.com 1.10,2013-05-07 20:45:00,
2013-05-07 14:00:00,72.3,55.0,29.98,SW,236,5.0,10.0,55,0.00,,,0.00,weatherlink.com 1.10,2013-05-07 21:00:00,
2013-05-07 14:15:00,72.8,54.0,29.98,SSW,200,7.0,12.0,51,0.00,,,0.00,weatherlink.com 1.10,2013-05-07 21:15:00,
2013-05-07 14:30:00,72.7,55.0,29.98,SSW,202,4.0,9.0,54,0.00,,,0.00,weatherlink.com 1.10,2013-05-07 21:30:00,
2013-05-07 14:45:00,73.0,54.0,29.97,WSW,250,3.0,10.0,52,0.00,,,0.00,weatherlink.com 1.10,2013-05-07 21:45:00,
2013-05-07 15:00:00,74.4,56.0,29.97,SW,223,4.0,8.0,53,0.00,,,0.00,weatherlink.com 1.10,2013-05-07 22:00:00,
2013-05-07 15:15:00,75.1,54.0,29.97,SSE,164,6.0,9.0,48,0.00,,,0.00,weatherlink.com 1.10,2013-05-07 22:15:00,
2013-05-07 15:30:00,74.8,54.0,29.96,SW,229,3.0,9.0,49,0.00,,,0.00,weatherlink.com 1.10,2013-05-07 22:30:00,
2013-05-07 15:46:00,74.6,56.0,29.96,WSW,241,3.0,8.0,52,0.00,,,0.00,weatherlink.com 1.10,2013-05-07 22:46:00,
2013-05-07 16:01:00,73.7,53.0,29.95,West,268,5.0,10.0,49,0.00,,,0.00,weatherlink.com 1.10,2013-05-07 23:01:00,
2013-05-07 16:16:00,71.8,53.0,29.96,WSW,240,6.0,9.0,52,0.00,,,0.00,weatherlink.com 1.10,2013-05-07 23:16:00,
2013-05-07 16:31:00,71.7,53.0,29.95,SW,220,2.0,6.0,52,0.00,,,0.00,weatherlink.com 1.10,2013-05-07 23:31:00,
2013-05-07 16:46:00,71.8,55.0,29.95,SW,219,5.0,6.0,55,0.00,,,0.00,weatherlink.com 1.10,2013-05-07 23:46:00,
2013-05-07 17:01:00,71.8,55.0,29.95,South,188,2.0,6.0,55,0.00,,,0.00,weatherlink.com 1.10,2013-05-08 00:01:00,
2013-05-07 17:16:00,71.7,55.0,29.95,SW,215,1.0,6.0,56,0.00,,,0.00,weatherlink.com 1.10,2013-05-08 00:16:00,
2013-05-07 17:31:00,71.6,55.0,29.95,West,273,3.0,6.0,56,0.00,,,0.00,weatherlink.com 1.10,2013-05-08 00:31:00,
2013-05-07 17:46:00,71.3,55.0,29.95,SW,221,2.0,6.0,57,0.00,,,0.00,weatherlink.com 1.10,2013-05-08 00:46:00,
2013-05-07 18:01:00,70.8,55.0,29.95,SW,228,2.0,7.0,58,0.00,,,0.00,weatherlink.com 1.10,2013-05-08 01:01:00,
2013-05-07 18:16:00,70.4,56.0,29.95,West,275,2.0,5.0,61,0.00,,,0.00,weatherlink.com 1.10,2013-05-08 01:16:00,
2013-05-07 18:31:00,70.2,56.0,29.95,WSW,254,2.0,5.0,60,0.00,,,0.00,weatherlink.com 1.10,2013-05-08 01:31:00,
2013-05-07 18:46:00,70.0,56.0,29.95,West,267,3.0,4.0,62,0.00,,,0.00,weatherlink.com 1.10,2013-05-08 01:46:00,
2013-05-07 19:01:00,69.7,56.0,29.95,West,260,2.0,5.0,61,0.00,,,0.00,weatherlink.com 1.10,2013-05-08 02:01:00,
2013-05-07 19:16:00,69.5,57.0,29.95,SW,232,1.0,4.0,64,0.00,,,0.00,weatherlink.com 1.10,2013-05-08 02:16:00,
2013-05-07 19:31:00,69.0,57.0,29.96,SW,234,1.0,3.0,66,0.00,,,0.00,weatherlink.com 1.10,2013-05-08 02:31:00,
2013-05-07 19:46:00,68.3,58.0,29.96,SW,233,0.0,2.0,69,0.00,,,0.00,weatherlink.com 1.10,2013-05-08 02:46:00,
2013-05-07 20:01:00,67.1,58.0,29.96,South,186,1.0,3.0,72,0.00,,,0.00,weatherlink.com 1.10,2013-05-08 03:01:00,
2013-05-07 20:16:00,66.3,54.0,29.97,SSW,208,6.0,7.0,65,0.00,,,0.00,weatherlink.com 1.10,2013-05-08 03:16:00,
2013-05-07 20:31:00,65.3,53.0,29.97,SW,229,3.0,10.0,64,0.00,,,0.00,weatherlink.com 1.10,2013-05-08 03:31:00,
2013-05-07 20:46:00,64.7,52.0,29.97,SSW,209,4.0,8.0,64,0.00,,,0.00,weatherlink.com 1.10,2013-05-08 03:46:00,
2013-05-07 21:01:00,64.3,52.0,29.97,SW,215,4.0,9.0,64,0.00,,,0.00,weatherlink.com 1.10,2013-05-08 04:01:00,
2013-05-07 21:16:00,63.9,52.0,29.98,SSW,213,3.0,8.0,65,0.00,,,0.00,weatherlink.com 1.10,2013-05-08 04:16:00,
2013-05-07 21:31:00,63.4,52.0,29.98,SW,222,3.0,8.0,66,0.00,,,0.00,weatherlink.com 1.10,2013-05-08 04:31:00,
2013-05-07 21:46:00,62.8,52.0,29.98,SW,221,4.0,9.0,68,0.00,,,0.00,weatherlink.com 1.10,2013-05-08 04:46:00,
2013-05-07 22:01:00,62.4,52.0,29.98,SW,227,2.0,8.0,69,0.00,,,0.00,weatherlink.com 1.10,2013-05-08 05:01:00,
2013-05-07 22:16:00,62.2,52.0,29.98,SW,215,3.0,9.0,69,0.00,,,0.00,weatherlink.com 1.10,2013-05-08 05:16:00,
2013-05-07 22:31:00,62.0,52.0,29.99,West,271,5.0,7.0,70,0.00,,,0.00,weatherlink.com 1.10,2013-05-08 05:31:00,
2013-05-07 22:46:00,61.8,52.0,30.00,WSW,240,4.0,10.0,71,0.00,,,0.00,weatherlink.com 1.10,2013-05-08 05:46:00,
2013-05-07 23:01:00,61.3,53.0,30.00,South,188,3.0,7.0,73,0.00,,,0.00,weatherlink.com 1.10,2013-05-08 06:01:00,
2013-05-07 23:16:00,60.7,52.0,30.00,WSW,238,4.0,9.0,74,0.00,,,0.00,weatherlink.com 1.10,2013-05-08 06:16:00,
2013-05-07 23:31:00,60.1,52.0,29.99,SW,229,2.0,8.0,75,0.00,,,0.00,weatherlink.com 1.10,2013-05-08 06:31:00,
2013-05-07 23:46:00,59.6,52.0,30.00,SW,232,2.0,7.0,76,0.00,,,0.00,weatherlink.com 1.10,2013-05-08 06:46:00,